sensor_id;sensor_type;location;lat;lon;timestamp;P1;durP1;ratioP1;P2;durP2;ratioP2
11396;SDS011;5754;43.726;7.416;2023-05-07T00:00:53;5.30;;;4.80;;
11396;SDS011;5754;43.726;7.416;2023-05-07T00:03:29;6.47;;;5.97;;
11396;SDS011;5754;43.726;7.416;2023-05-07T00:06:03;7.10;;;6.50;;
11396;SDS011;5754;43.726;7.416;2023-05-07T00:08:38;7.80;;;7.17;;
11396;SDS011;5754;43.726;7.416;2023-05-07T00:11:13;6.87;;;6.37;;
11396;SDS011;5754;43.726;7.416;2023-05-07T00:13:48;7.50;;;6.83;;
11396;SDS011;5754;43.726;7.416;2023-05-07T00:16:22;8.53;;;7.73;;
11396;SDS011;5754;43.726;7.416;2023-05-07T00:18:57;6.90;;;6.20;;
11396;SDS011;5754;43.726;7.416;2023-05-07T00:21:32;7.57;;;6.87;;
11396;SDS011;5754;43.726;7.416;2023-05-07T00:24:06;6.53;;;6.03;;
11396;SDS011;5754;43.726;7.416;2023-05-07T00:26:41;7.40;;;6.70;;
11396;SDS011;5754;43.726;7.416;2023-05-07T00:29:15;7.60;;;6.80;;
11396;SDS011;5754;43.726;7.416;2023-05-07T00:31:49;8.33;;;7.30;;
11396;SDS011;5754;43.726;7.416;2023-05-07T00:34:24;7.60;;;6.90;;
11396;SDS011;5754;43.726;7.416;2023-05-07T00:36:58;7.63;;;6.93;;
11396;SDS011;5754;43.726;7.416;2023-05-07T00:39:33;7.77;;;6.90;;
11396;SDS011;5754;43.726;7.416;2023-05-07T00:42:08;7.00;;;6.40;;
11396;SDS011;5754;43.726;7.416;2023-05-07T00:44:43;6.80;;;6.20;;
11396;SDS011;5754;43.726;7.416;2023-05-07T00:47:17;7.13;;;6.47;;
11396;SDS011;5754;43.726;7.416;2023-05-07T00:49:52;6.83;;;6.23;;
11396;SDS011;5754;43.726;7.416;2023-05-07T00:52:26;7.63;;;7.03;;
11396;SDS011;5754;43.726;7.416;2023-05-07T00:55:04;6.93;;;6.33;;
11396;SDS011;5754;43.726;7.416;2023-05-07T00:57:40;7.27;;;6.60;;
11396;SDS011;5754;43.726;7.416;2023-05-07T01:00:15;7.23;;;6.13;;
11396;SDS011;5754;43.726;7.416;2023-05-07T01:02:49;6.60;;;6.10;;
11396;SDS011;5754;43.726;7.416;2023-05-07T01:05:24;7.07;;;6.47;;
11396;SDS011;5754;43.726;7.416;2023-05-07T01:08:01;6.80;;;6.30;;
11396;SDS011;5754;43.726;7.416;2023-05-07T01:10:37;6.70;;;6.10;;
11396;SDS011;5754;43.726;7.416;2023-05-07T01:13:17;6.47;;;5.90;;
11396;SDS011;5754;43.726;7.416;2023-05-07T01:15:52;7.43;;;6.77;;
11396;SDS011;5754;43.726;7.416;2023-05-07T01:18:27;7.27;;;6.67;;
11396;SDS011;5754;43.726;7.416;2023-05-07T01:21:04;7.17;;;6.57;;
11396;SDS011;5754;43.726;7.416;2023-05-07T01:23:38;6.57;;;5.90;;
11396;SDS011;5754;43.726;7.416;2023-05-07T01:26:14;6.17;;;5.67;;
11396;SDS011;5754;43.726;7.416;2023-05-07T01:28:50;6.40;;;5.83;;
11396;SDS011;5754;43.726;7.416;2023-05-07T01:31:25;6.70;;;6.10;;
11396;SDS011;5754;43.726;7.416;2023-05-07T01:34:01;7.43;;;6.73;;
11396;SDS011;5754;43.726;7.416;2023-05-07T01:36:37;6.60;;;6.00;;
11396;SDS011;5754;43.726;7.416;2023-05-07T01:39:13;6.20;;;5.70;;
11396;SDS011;5754;43.726;7.416;2023-05-07T01:41:47;7.20;;;6.60;;
11396;SDS011;5754;43.726;7.416;2023-05-07T01:44:24;8.00;;;6.20;;
11396;SDS011;5754;43.726;7.416;2023-05-07T01:46:59;8.30;;;6.37;;
11396;SDS011;5754;43.726;7.416;2023-05-07T01:49:34;6.77;;;6.10;;
11396;SDS011;5754;43.726;7.416;2023-05-07T01:52:09;6.83;;;6.13;;
11396;SDS011;5754;43.726;7.416;2023-05-07T01:54:44;7.87;;;6.20;;
11396;SDS011;5754;43.726;7.416;2023-05-07T01:57:19;6.73;;;5.60;;
11396;SDS011;5754;43.726;7.416;2023-05-07T01:59:54;7.20;;;6.13;;
11396;SDS011;5754;43.726;7.416;2023-05-07T02:02:29;7.40;;;5.30;;
11396;SDS011;5754;43.726;7.416;2023-05-07T02:05:04;6.00;;;5.40;;
11396;SDS011;5754;43.726;7.416;2023-05-07T02:07:39;5.77;;;5.27;;
11396;SDS011;5754;43.726;7.416;2023-05-07T02:10:14;6.60;;;6.00;;
11396;SDS011;5754;43.726;7.416;2023-05-07T02:12:48;6.33;;;5.27;;
11396;SDS011;5754;43.726;7.416;2023-05-07T02:15:23;6.97;;;5.60;;
11396;SDS011;5754;43.726;7.416;2023-05-07T02:18:01;7.10;;;5.67;;
11396;SDS011;5754;43.726;7.416;2023-05-07T02:20:36;6.30;;;5.70;;
11396;SDS011;5754;43.726;7.416;2023-05-07T02:23:11;6.30;;;5.80;;
11396;SDS011;5754;43.726;7.416;2023-05-07T02:25:45;5.90;;;5.37;;
11396;SDS011;5754;43.726;7.416;2023-05-07T02:28:19;6.70;;;6.20;;
11396;SDS011;5754;43.726;7.416;2023-05-07T02:31:04;7.23;;;6.30;;
11396;SDS011;5754;43.726;7.416;2023-05-07T02:33:39;5.80;;;5.30;;
11396;SDS011;5754;43.726;7.416;2023-05-07T02:36:14;5.43;;;4.97;;
11396;SDS011;5754;43.726;7.416;2023-05-07T02:38:55;5.97;;;4.90;;
11396;SDS011;5754;43.726;7.416;2023-05-07T02:41:30;5.27;;;4.87;;
11396;SDS011;5754;43.726;7.416;2023-05-07T02:44:04;5.10;;;4.70;;
11396;SDS011;5754;43.726;7.416;2023-05-07T02:46:40;6.20;;;5.43;;
11396;SDS011;5754;43.726;7.416;2023-05-07T02:49:16;4.93;;;4.57;;
11396;SDS011;5754;43.726;7.416;2023-05-07T02:51:50;5.23;;;4.73;;
11396;SDS011;5754;43.726;7.416;2023-05-07T02:54:28;5.00;;;4.60;;
11396;SDS011;5754;43.726;7.416;2023-05-07T02:57:02;5.17;;;4.40;;
11396;SDS011;5754;43.726;7.416;2023-05-07T02:59:37;5.77;;;4.10;;
11396;SDS011;5754;43.726;7.416;2023-05-07T03:02:12;4.60;;;4.20;;
11396;SDS011;5754;43.726;7.416;2023-05-07T03:04:48;4.83;;;4.30;;
11396;SDS011;5754;43.726;7.416;2023-05-07T03:07:23;4.77;;;4.27;;
11396;SDS011;5754;43.726;7.416;2023-05-07T03:09:57;4.60;;;4.20;;
11396;SDS011;5754;43.726;7.416;2023-05-07T03:12:32;5.97;;;4.97;;
11396;SDS011;5754;43.726;7.416;2023-05-07T03:15:07;5.57;;;4.50;;
11396;SDS011;5754;43.726;7.416;2023-05-07T03:17:42;5.70;;;4.97;;
11396;SDS011;5754;43.726;7.416;2023-05-07T03:20:17;5.60;;;4.80;;
11396;SDS011;5754;43.726;7.416;2023-05-07T03:22:52;3.73;;;3.47;;
11396;SDS011;5754;43.726;7.416;2023-05-07T03:25:26;4.30;;;4.00;;
11396;SDS011;5754;43.726;7.416;2023-05-07T03:28:02;4.10;;;3.80;;
11396;SDS011;5754;43.726;7.416;2023-05-07T03:30:43;4.77;;;4.20;;
11396;SDS011;5754;43.726;7.416;2023-05-07T03:33:18;5.90;;;4.27;;
11396;SDS011;5754;43.726;7.416;2023-05-07T03:35:52;4.87;;;4.37;;
11396;SDS011;5754;43.726;7.416;2023-05-07T03:38:30;4.80;;;4.10;;
11396;SDS011;5754;43.726;7.416;2023-05-07T03:41:05;6.33;;;3.47;;
11396;SDS011;5754;43.726;7.416;2023-05-07T03:43:41;4.90;;;3.50;;
11396;SDS011;5754;43.726;7.416;2023-05-07T03:46:17;4.20;;;3.80;;
11396;SDS011;5754;43.726;7.416;2023-05-07T03:48:52;5.33;;;4.00;;
11396;SDS011;5754;43.726;7.416;2023-05-07T03:51:27;3.80;;;3.50;;
11396;SDS011;5754;43.726;7.416;2023-05-07T03:54:01;5.17;;;3.87;;
11396;SDS011;5754;43.726;7.416;2023-05-07T03:56:36;4.20;;;3.73;;
11396;SDS011;5754;43.726;7.416;2023-05-07T03:59:11;4.70;;;4.30;;
11396;SDS011;5754;43.726;7.416;2023-05-07T04:01:46;4.97;;;4.20;;
11396;SDS011;5754;43.726;7.416;2023-05-07T04:04:24;4.53;;;4.13;;
11396;SDS011;5754;43.726;7.416;2023-05-07T04:06:58;5.27;;;4.10;;
11396;SDS011;5754;43.726;7.416;2023-05-07T04:09:34;4.60;;;4.20;;
11396;SDS011;5754;43.726;7.416;2023-05-07T04:12:08;4.30;;;3.90;;
11396;SDS011;5754;43.726;7.416;2023-05-07T04:14:43;4.17;;;3.83;;
11396;SDS011;5754;43.726;7.416;2023-05-07T04:17:17;5.03;;;3.90;;
11396;SDS011;5754;43.726;7.416;2023-05-07T04:19:52;4.50;;;4.10;;
11396;SDS011;5754;43.726;7.416;2023-05-07T04:22:26;4.37;;;3.87;;
11396;SDS011;5754;43.726;7.416;2023-05-07T04:25:02;4.77;;;4.37;;
11396;SDS011;5754;43.726;7.416;2023-05-07T04:27:39;5.90;;;4.40;;
11396;SDS011;5754;43.726;7.416;2023-05-07T04:30:14;6.97;;;4.37;;
11396;SDS011;5754;43.726;7.416;2023-05-07T04:32:49;4.30;;;3.87;;
11396;SDS011;5754;43.726;7.416;2023-05-07T04:35:24;3.73;;;3.50;;
11396;SDS011;5754;43.726;7.416;2023-05-07T04:37:58;4.50;;;4.10;;
11396;SDS011;5754;43.726;7.416;2023-05-07T04:40:33;5.30;;;4.80;;
11396;SDS011;5754;43.726;7.416;2023-05-07T04:43:08;4.63;;;3.80;;
11396;SDS011;5754;43.726;7.416;2023-05-07T04:45:51;4.03;;;3.57;;
11396;SDS011;5754;43.726;7.416;2023-05-07T04:48:27;4.87;;;3.90;;
11396;SDS011;5754;43.726;7.416;2023-05-07T04:51:02;3.60;;;3.30;;
11396;SDS011;5754;43.726;7.416;2023-05-07T04:53:37;4.27;;;3.87;;
11396;SDS011;5754;43.726;7.416;2023-05-07T04:56:13;3.70;;;3.40;;
11396;SDS011;5754;43.726;7.416;2023-05-07T04:58:49;3.83;;;3.50;;
11396;SDS011;5754;43.726;7.416;2023-05-07T05:01:25;4.57;;;4.17;;
11396;SDS011;5754;43.726;7.416;2023-05-07T05:04:00;4.17;;;3.70;;
11396;SDS011;5754;43.726;7.416;2023-05-07T05:06:34;4.50;;;4.10;;
11396;SDS011;5754;43.726;7.416;2023-05-07T05:09:09;4.10;;;3.80;;
11396;SDS011;5754;43.726;7.416;2023-05-07T05:11:47;4.43;;;4.10;;
11396;SDS011;5754;43.726;7.416;2023-05-07T05:14:23;4.40;;;4.07;;
11396;SDS011;5754;43.726;7.416;2023-05-07T05:16:58;3.77;;;3.40;;
11396;SDS011;5754;43.726;7.416;2023-05-07T05:19:33;3.97;;;3.40;;
11396;SDS011;5754;43.726;7.416;2023-05-07T05:22:07;4.07;;;3.63;;
11396;SDS011;5754;43.726;7.416;2023-05-07T05:24:42;4.47;;;4.07;;
11396;SDS011;5754;43.726;7.416;2023-05-07T05:27:17;5.00;;;3.77;;
11396;SDS011;5754;43.726;7.416;2023-05-07T05:29:52;4.27;;;3.87;;
11396;SDS011;5754;43.726;7.416;2023-05-07T05:32:26;4.03;;;3.73;;
11396;SDS011;5754;43.726;7.416;2023-05-07T05:35:01;3.97;;;3.63;;
11396;SDS011;5754;43.726;7.416;2023-05-07T05:37:36;4.27;;;3.97;;
11396;SDS011;5754;43.726;7.416;2023-05-07T05:40:11;3.80;;;3.50;;
11396;SDS011;5754;43.726;7.416;2023-05-07T05:42:47;6.37;;;3.90;;
11396;SDS011;5754;43.726;7.416;2023-05-07T05:45:23;4.23;;;3.87;;
11396;SDS011;5754;43.726;7.416;2023-05-07T05:47:58;4.23;;;3.83;;
11396;SDS011;5754;43.726;7.416;2023-05-07T05:50:32;3.77;;;3.47;;
11396;SDS011;5754;43.726;7.416;2023-05-07T05:53:09;3.97;;;3.67;;
11396;SDS011;5754;43.726;7.416;2023-05-07T05:55:43;4.93;;;3.87;;
11396;SDS011;5754;43.726;7.416;2023-05-07T05:58:18;5.53;;;3.30;;
11396;SDS011;5754;43.726;7.416;2023-05-07T06:00:57;3.90;;;3.60;;
11396;SDS011;5754;43.726;7.416;2023-05-07T06:03:33;4.07;;;3.77;;
11396;SDS011;5754;43.726;7.416;2023-05-07T06:06:09;3.90;;;3.60;;
11396;SDS011;5754;43.726;7.416;2023-05-07T06:08:44;4.00;;;3.70;;
11396;SDS011;5754;43.726;7.416;2023-05-07T06:11:22;3.90;;;3.60;;
11396;SDS011;5754;43.726;7.416;2023-05-07T06:13:57;4.07;;;3.50;;
11396;SDS011;5754;43.726;7.416;2023-05-07T06:16:32;4.60;;;4.20;;
11396;SDS011;5754;43.726;7.416;2023-05-07T06:19:12;3.80;;;3.20;;
11396;SDS011;5754;43.726;7.416;2023-05-07T06:21:47;3.80;;;3.50;;
11396;SDS011;5754;43.726;7.416;2023-05-07T06:24:21;3.73;;;3.43;;
11396;SDS011;5754;43.726;7.416;2023-05-07T06:26:57;3.80;;;3.50;;
11396;SDS011;5754;43.726;7.416;2023-05-07T06:29:32;3.60;;;3.00;;
11396;SDS011;5754;43.726;7.416;2023-05-07T06:32:08;4.03;;;3.63;;
11396;SDS011;5754;43.726;7.416;2023-05-07T06:34:44;4.10;;;3.80;;
11396;SDS011;5754;43.726;7.416;2023-05-07T06:37:21;7.10;;;4.20;;
11396;SDS011;5754;43.726;7.416;2023-05-07T06:40:02;3.60;;;3.30;;
11396;SDS011;5754;43.726;7.416;2023-05-07T06:42:37;3.80;;;3.50;;
11396;SDS011;5754;43.726;7.416;2023-05-07T06:46:01;3.53;;;3.00;;
11396;SDS011;5754;43.726;7.416;2023-05-07T06:48:36;3.30;;;3.00;;
11396;SDS011;5754;43.726;7.416;2023-05-07T06:51:12;3.53;;;2.77;;
11396;SDS011;5754;43.726;7.416;2023-05-07T06:53:47;3.70;;;2.67;;
11396;SDS011;5754;43.726;7.416;2023-05-07T06:56:21;2.50;;;2.30;;
11396;SDS011;5754;43.726;7.416;2023-05-07T06:58:57;2.62;;;2.42;;
11396;SDS011;5754;43.726;7.416;2023-05-07T07:01:31;2.42;;;2.22;;
11396;SDS011;5754;43.726;7.416;2023-05-07T07:04:06;3.90;;;2.45;;
11396;SDS011;5754;43.726;7.416;2023-05-07T07:06:45;4.35;;;2.50;;
11396;SDS011;5754;43.726;7.416;2023-05-07T07:09:20;2.78;;;2.45;;
11396;SDS011;5754;43.726;7.416;2023-05-07T07:11:56;2.80;;;2.60;;
11396;SDS011;5754;43.726;7.416;2023-05-07T07:14:30;2.80;;;2.60;;
11396;SDS011;5754;43.726;7.416;2023-05-07T07:17:04;2.92;;;2.62;;
11396;SDS011;5754;43.726;7.416;2023-05-07T07:19:40;3.90;;;3.60;;
11396;SDS011;5754;43.726;7.416;2023-05-07T07:22:16;3.33;;;3.00;;
11396;SDS011;5754;43.726;7.416;2023-05-07T07:24:51;2.80;;;2.60;;
11396;SDS011;5754;43.726;7.416;2023-05-07T07:27:25;3.10;;;2.80;;
11396;SDS011;5754;43.726;7.416;2023-05-07T07:30:00;2.92;;;2.72;;
11396;SDS011;5754;43.726;7.416;2023-05-07T07:32:37;4.47;;;2.87;;
11396;SDS011;5754;43.726;7.416;2023-05-07T07:35:11;3.37;;;2.60;;
11396;SDS011;5754;43.726;7.416;2023-05-07T07:37:46;3.37;;;2.87;;
11396;SDS011;5754;43.726;7.416;2023-05-07T07:40:24;2.80;;;2.40;;
11396;SDS011;5754;43.726;7.416;2023-05-07T07:42:59;4.53;;;2.70;;
11396;SDS011;5754;43.726;7.416;2023-05-07T07:45:35;2.83;;;2.58;;
11396;SDS011;5754;43.726;7.416;2023-05-07T07:48:09;2.62;;;2.42;;
11396;SDS011;5754;43.726;7.416;2023-05-07T07:50:45;2.90;;;2.47;;
11396;SDS011;5754;43.726;7.416;2023-05-07T07:53:22;2.92;;;2.72;;
11396;SDS011;5754;43.726;7.416;2023-05-07T07:55:58;2.72;;;2.45;;
11396;SDS011;5754;43.726;7.416;2023-05-07T07:58:35;2.20;;;2.10;;
11396;SDS011;5754;43.726;7.416;2023-05-07T08:01:11;2.65;;;2.45;;
11396;SDS011;5754;43.726;7.416;2023-05-07T08:03:46;2.50;;;2.33;;
11396;SDS011;5754;43.726;7.416;2023-05-07T08:06:23;3.45;;;2.67;;
11396;SDS011;5754;43.726;7.416;2023-05-07T08:11:38;3.15;;;2.40;;
11396;SDS011;5754;43.726;7.416;2023-05-07T08:14:13;6.47;;;2.70;;
11396;SDS011;5754;43.726;7.416;2023-05-07T08:16:50;2.60;;;2.40;;
11396;SDS011;5754;43.726;7.416;2023-05-07T08:19:24;2.80;;;2.60;;
11396;SDS011;5754;43.726;7.416;2023-05-07T08:21:59;2.75;;;2.55;;
11396;SDS011;5754;43.726;7.416;2023-05-07T08:24:35;2.75;;;2.55;;
11396;SDS011;5754;43.726;7.416;2023-05-07T08:27:09;2.85;;;2.50;;
11396;SDS011;5754;43.726;7.416;2023-05-07T08:29:44;4.68;;;2.90;;
11396;SDS011;5754;43.726;7.416;2023-05-07T08:32:21;2.55;;;2.35;;
11396;SDS011;5754;43.726;7.416;2023-05-07T08:34:55;2.92;;;2.50;;
11396;SDS011;5754;43.726;7.416;2023-05-07T08:37:31;2.50;;;2.30;;
11396;SDS011;5754;43.726;7.416;2023-05-07T08:40:06;2.60;;;2.40;;
11396;SDS011;5754;43.726;7.416;2023-05-07T08:42:42;2.72;;;2.47;;
11396;SDS011;5754;43.726;7.416;2023-05-07T08:45:17;4.57;;;2.83;;
11396;SDS011;5754;43.726;7.416;2023-05-07T08:47:58;3.63;;;2.50;;
11396;SDS011;5754;43.726;7.416;2023-05-07T08:50:38;3.53;;;3.03;;
11396;SDS011;5754;43.726;7.416;2023-05-07T08:53:12;4.47;;;3.00;;
11396;SDS011;5754;43.726;7.416;2023-05-07T08:55:48;2.97;;;2.60;;
11396;SDS011;5754;43.726;7.416;2023-05-07T08:58:23;3.20;;;2.90;;
11396;SDS011;5754;43.726;7.416;2023-05-07T09:00:58;4.33;;;2.80;;
11396;SDS011;5754;43.726;7.416;2023-05-07T09:03:33;2.60;;;2.40;;
11396;SDS011;5754;43.726;7.416;2023-05-07T09:06:08;3.07;;;2.87;;
11396;SDS011;5754;43.726;7.416;2023-05-07T09:08:50;5.17;;;3.00;;
11396;SDS011;5754;43.726;7.416;2023-05-07T09:11:25;2.67;;;2.47;;
11396;SDS011;5754;43.726;7.416;2023-05-07T09:14:01;3.17;;;2.60;;
11396;SDS011;5754;43.726;7.416;2023-05-07T09:16:40;3.03;;;2.60;;
11396;SDS011;5754;43.726;7.416;2023-05-07T09:19:15;2.80;;;2.60;;
11396;SDS011;5754;43.726;7.416;2023-05-07T09:22:03;2.77;;;2.57;;
11396;SDS011;5754;43.726;7.416;2023-05-07T09:24:48;3.20;;;2.77;;
11396;SDS011;5754;43.726;7.416;2023-05-07T09:27:24;2.70;;;2.50;;
11396;SDS011;5754;43.726;7.416;2023-05-07T09:30:02;3.50;;;3.20;;
11396;SDS011;5754;43.726;7.416;2023-05-07T09:32:37;2.80;;;2.50;;
11396;SDS011;5754;43.726;7.416;2023-05-07T09:35:15;3.07;;;2.83;;
11396;SDS011;5754;43.726;7.416;2023-05-07T09:37:52;3.50;;;2.80;;
11396;SDS011;5754;43.726;7.416;2023-05-07T09:40:29;2.80;;;2.60;;
11396;SDS011;5754;43.726;7.416;2023-05-07T09:43:08;2.63;;;2.30;;
11396;SDS011;5754;43.726;7.416;2023-05-07T09:45:44;4.43;;;2.80;;
11396;SDS011;5754;43.726;7.416;2023-05-07T09:48:25;3.27;;;2.97;;
11396;SDS011;5754;43.726;7.416;2023-05-07T09:51:01;4.13;;;3.80;;
11396;SDS011;5754;43.726;7.416;2023-05-07T09:53:38;3.37;;;3.07;;
11396;SDS011;5754;43.726;7.416;2023-05-07T09:56:14;2.90;;;2.70;;
11396;SDS011;5754;43.726;7.416;2023-05-07T09:58:49;4.70;;;3.17;;
11396;SDS011;5754;43.726;7.416;2023-05-07T10:01:25;3.17;;;2.63;;
11396;SDS011;5754;43.726;7.416;2023-05-07T10:04:01;3.40;;;2.90;;
11396;SDS011;5754;43.726;7.416;2023-05-07T10:06:37;2.90;;;2.70;;
11396;SDS011;5754;43.726;7.416;2023-05-07T10:09:12;2.93;;;2.73;;
11396;SDS011;5754;43.726;7.416;2023-05-07T10:11:51;4.40;;;3.40;;
11396;SDS011;5754;43.726;7.416;2023-05-07T10:14:26;3.10;;;2.80;;
11396;SDS011;5754;43.726;7.416;2023-05-07T10:17:02;4.17;;;3.20;;
11396;SDS011;5754;43.726;7.416;2023-05-07T10:19:37;3.07;;;2.87;;
11396;SDS011;5754;43.726;7.416;2023-05-07T10:22:13;3.30;;;3.00;;
11396;SDS011;5754;43.726;7.416;2023-05-07T10:24:50;3.77;;;3.47;;
11396;SDS011;5754;43.726;7.416;2023-05-07T10:27:27;4.37;;;3.10;;
11396;SDS011;5754;43.726;7.416;2023-05-07T10:30:12;3.87;;;3.50;;
11396;SDS011;5754;43.726;7.416;2023-05-07T10:32:49;3.77;;;3.17;;
11396;SDS011;5754;43.726;7.416;2023-05-07T10:35:40;3.77;;;3.47;;
11396;SDS011;5754;43.726;7.416;2023-05-07T10:38:15;4.13;;;3.83;;
11396;SDS011;5754;43.726;7.416;2023-05-07T10:40:51;4.40;;;4.00;;
11396;SDS011;5754;43.726;7.416;2023-05-07T10:43:37;6.40;;;5.77;;
11396;SDS011;5754;43.726;7.416;2023-05-07T10:46:18;6.40;;;5.57;;
11396;SDS011;5754;43.726;7.416;2023-05-07T10:49:08;4.60;;;4.20;;
11396;SDS011;5754;43.726;7.416;2023-05-07T10:52:13;5.03;;;4.63;;
11396;SDS011;5754;43.726;7.416;2023-05-07T10:57:49;5.70;;;5.20;;
11396;SDS011;5754;43.726;7.416;2023-05-07T11:00:49;5.90;;;5.50;;
11396;SDS011;5754;43.726;7.416;2023-05-07T11:03:30;4.87;;;4.47;;
11396;SDS011;5754;43.726;7.416;2023-05-07T11:06:12;4.93;;;4.10;;
11396;SDS011;5754;43.726;7.416;2023-05-07T11:09:02;5.10;;;4.60;;
11396;SDS011;5754;43.726;7.416;2023-05-07T11:11:47;4.83;;;4.43;;
11396;SDS011;5754;43.726;7.416;2023-05-07T11:14:48;5.27;;;4.87;;
11396;SDS011;5754;43.726;7.416;2023-05-07T11:17:27;4.77;;;4.37;;
11396;SDS011;5754;43.726;7.416;2023-05-07T11:20:09;4.20;;;3.87;;
11396;SDS011;5754;43.726;7.416;2023-05-07T11:22:56;7.70;;;5.23;;
11396;SDS011;5754;43.726;7.416;2023-05-07T11:25:44;4.33;;;4.00;;
11396;SDS011;5754;43.726;7.416;2023-05-07T11:28:23;4.53;;;4.23;;
11396;SDS011;5754;43.726;7.416;2023-05-07T11:31:07;5.13;;;4.30;;
11396;SDS011;5754;43.726;7.416;2023-05-07T11:33:43;4.17;;;3.80;;
11396;SDS011;5754;43.726;7.416;2023-05-07T11:36:21;4.40;;;4.10;;
11396;SDS011;5754;43.726;7.416;2023-05-07T11:38:59;4.37;;;4.07;;
11396;SDS011;5754;43.726;7.416;2023-05-07T11:41:34;4.13;;;3.70;;
11396;SDS011;5754;43.726;7.416;2023-05-07T11:44:09;4.83;;;4.37;;
11396;SDS011;5754;43.726;7.416;2023-05-07T11:46:45;4.65;;;3.78;;
11396;SDS011;5754;43.726;7.416;2023-05-07T11:49:19;4.37;;;3.90;;
11396;SDS011;5754;43.726;7.416;2023-05-07T11:51:54;4.40;;;4.00;;
11396;SDS011;5754;43.726;7.416;2023-05-07T11:54:38;4.70;;;4.30;;
11396;SDS011;5754;43.726;7.416;2023-05-07T11:57:16;3.87;;;3.57;;
11396;SDS011;5754;43.726;7.416;2023-05-07T11:59:54;4.30;;;3.83;;
11396;SDS011;5754;43.726;7.416;2023-05-07T12:02:28;4.47;;;4.07;;
11396;SDS011;5754;43.726;7.416;2023-05-07T12:05:04;5.03;;;4.63;;
11396;SDS011;5754;43.726;7.416;2023-05-07T12:07:39;7.17;;;6.47;;
11396;SDS011;5754;43.726;7.416;2023-05-07T12:10:14;4.20;;;3.80;;
11396;SDS011;5754;43.726;7.416;2023-05-07T12:12:48;4.60;;;4.20;;
11396;SDS011;5754;43.726;7.416;2023-05-07T12:15:23;4.72;;;3.83;;
11396;SDS011;5754;43.726;7.416;2023-05-07T12:17:57;3.97;;;3.67;;
11396;SDS011;5754;43.726;7.416;2023-05-07T12:20:33;4.33;;;3.93;;
11396;SDS011;5754;43.726;7.416;2023-05-07T12:23:07;3.67;;;3.40;;
11396;SDS011;5754;43.726;7.416;2023-05-07T12:25:43;4.07;;;3.70;;
11396;SDS011;5754;43.726;7.416;2023-05-07T12:28:21;4.17;;;3.77;;
11396;SDS011;5754;43.726;7.416;2023-05-07T12:30:55;4.00;;;3.70;;
11396;SDS011;5754;43.726;7.416;2023-05-07T12:33:31;3.83;;;3.50;;
11396;SDS011;5754;43.726;7.416;2023-05-07T12:36:06;3.87;;;3.57;;
11396;SDS011;5754;43.726;7.416;2023-05-07T12:38:42;4.80;;;4.40;;
11396;SDS011;5754;43.726;7.416;2023-05-07T12:41:16;4.63;;;3.97;;
11396;SDS011;5754;43.726;7.416;2023-05-07T12:43:52;5.40;;;4.90;;
11396;SDS011;5754;43.726;7.416;2023-05-07T12:46:30;5.03;;;3.97;;
11396;SDS011;5754;43.726;7.416;2023-05-07T12:49:05;4.27;;;3.97;;
11396;SDS011;5754;43.726;7.416;2023-05-07T12:51:39;4.43;;;4.03;;
11396;SDS011;5754;43.726;7.416;2023-05-07T12:54:33;4.10;;;3.70;;
11396;SDS011;5754;43.726;7.416;2023-05-07T12:57:09;3.77;;;3.43;;
11396;SDS011;5754;43.726;7.416;2023-05-07T12:59:44;3.73;;;3.40;;
11396;SDS011;5754;43.726;7.416;2023-05-07T13:02:19;3.80;;;3.50;;
11396;SDS011;5754;43.726;7.416;2023-05-07T13:04:54;3.87;;;3.57;;
11396;SDS011;5754;43.726;7.416;2023-05-07T13:07:28;5.57;;;3.93;;
11396;SDS011;5754;43.726;7.416;2023-05-07T13:10:03;3.83;;;3.63;;
11396;SDS011;5754;43.726;7.416;2023-05-07T13:12:39;4.10;;;3.80;;
11396;SDS011;5754;43.726;7.416;2023-05-07T13:15:13;4.33;;;3.93;;
11396;SDS011;5754;43.726;7.416;2023-05-07T13:17:47;4.27;;;3.97;;
11396;SDS011;5754;43.726;7.416;2023-05-07T13:20:22;3.93;;;3.63;;
11396;SDS011;5754;43.726;7.416;2023-05-07T13:22:56;3.97;;;3.67;;
11396;SDS011;5754;43.726;7.416;2023-05-07T13:25:31;4.20;;;3.90;;
11396;SDS011;5754;43.726;7.416;2023-05-07T13:28:06;5.23;;;3.97;;
11396;SDS011;5754;43.726;7.416;2023-05-07T13:30:43;3.93;;;3.60;;
11396;SDS011;5754;43.726;7.416;2023-05-07T13:33:18;4.47;;;4.07;;
11396;SDS011;5754;43.726;7.416;2023-05-07T13:35:52;4.77;;;4.37;;
11396;SDS011;5754;43.726;7.416;2023-05-07T13:38:28;5.30;;;4.40;;
11396;SDS011;5754;43.726;7.416;2023-05-07T13:41:03;4.80;;;4.10;;
11396;SDS011;5754;43.726;7.416;2023-05-07T13:43:37;4.77;;;3.80;;
11396;SDS011;5754;43.726;7.416;2023-05-07T13:46:12;3.93;;;3.63;;
11396;SDS011;5754;43.726;7.416;2023-05-07T13:48:46;3.97;;;3.67;;
11396;SDS011;5754;43.726;7.416;2023-05-07T13:51:21;4.57;;;4.17;;
11396;SDS011;5754;43.726;7.416;2023-05-07T13:53:56;4.00;;;3.60;;
11396;SDS011;5754;43.726;7.416;2023-05-07T13:56:31;4.50;;;4.10;;
11396;SDS011;5754;43.726;7.416;2023-05-07T13:59:06;3.90;;;3.60;;
11396;SDS011;5754;43.726;7.416;2023-05-07T14:01:41;3.73;;;3.50;;
11396;SDS011;5754;43.726;7.416;2023-05-07T14:04:16;4.40;;;3.57;;
11396;SDS011;5754;43.726;7.416;2023-05-07T14:06:50;4.13;;;3.70;;
11396;SDS011;5754;43.726;7.416;2023-05-07T14:09:26;3.70;;;3.40;;
11396;SDS011;5754;43.726;7.416;2023-05-07T14:12:01;4.10;;;3.60;;
11396;SDS011;5754;43.726;7.416;2023-05-07T14:14:35;3.50;;;3.30;;
11396;SDS011;5754;43.726;7.416;2023-05-07T14:17:10;3.50;;;3.20;;
11396;SDS011;5754;43.726;7.416;2023-05-07T14:19:44;3.40;;;3.20;;
11396;SDS011;5754;43.726;7.416;2023-05-07T14:22:19;3.20;;;2.87;;
11396;SDS011;5754;43.726;7.416;2023-05-07T14:24:54;4.00;;;3.70;;
11396;SDS011;5754;43.726;7.416;2023-05-07T14:27:39;3.43;;;3.23;;
11396;SDS011;5754;43.726;7.416;2023-05-07T14:30:13;3.90;;;3.03;;
11396;SDS011;5754;43.726;7.416;2023-05-07T14:32:48;3.90;;;3.10;;
11396;SDS011;5754;43.726;7.416;2023-05-07T14:35:22;3.77;;;3.13;;
11396;SDS011;5754;43.726;7.416;2023-05-07T14:37:57;3.73;;;3.30;;
11396;SDS011;5754;43.726;7.416;2023-05-07T14:40:31;3.67;;;3.23;;
11396;SDS011;5754;43.726;7.416;2023-05-07T14:43:06;3.77;;;3.30;;
11396;SDS011;5754;43.726;7.416;2023-05-07T14:45:41;3.37;;;3.17;;
11396;SDS011;5754;43.726;7.416;2023-05-07T14:48:16;4.00;;;3.60;;
11396;SDS011;5754;43.726;7.416;2023-05-07T14:50:54;3.37;;;3.13;;
11396;SDS011;5754;43.726;7.416;2023-05-07T14:53:30;3.50;;;3.20;;
11396;SDS011;5754;43.726;7.416;2023-05-07T14:56:04;3.60;;;3.30;;
11396;SDS011;5754;43.726;7.416;2023-05-07T14:58:39;4.23;;;3.80;;
11396;SDS011;5754;43.726;7.416;2023-05-07T15:01:13;3.90;;;3.60;;
11396;SDS011;5754;43.726;7.416;2023-05-07T15:03:47;3.73;;;3.47;;
11396;SDS011;5754;43.726;7.416;2023-05-07T15:06:22;4.30;;;3.73;;
11396;SDS011;5754;43.726;7.416;2023-05-07T15:08:57;4.93;;;3.70;;
11396;SDS011;5754;43.726;7.416;2023-05-07T15:11:31;5.13;;;3.80;;
11396;SDS011;5754;43.726;7.416;2023-05-07T15:14:06;5.10;;;3.90;;
11396;SDS011;5754;43.726;7.416;2023-05-07T15:16:40;3.97;;;3.57;;
11396;SDS011;5754;43.726;7.416;2023-05-07T15:19:15;4.50;;;4.20;;
11396;SDS011;5754;43.726;7.416;2023-05-07T15:21:50;3.67;;;3.47;;
11396;SDS011;5754;43.726;7.416;2023-05-07T15:24:24;3.70;;;3.40;;
11396;SDS011;5754;43.726;7.416;2023-05-07T15:26:59;6.23;;;3.90;;
11396;SDS011;5754;43.726;7.416;2023-05-07T15:29:35;4.37;;;3.97;;
11396;SDS011;5754;43.726;7.416;2023-05-07T15:32:10;4.07;;;3.70;;
11396;SDS011;5754;43.726;7.416;2023-05-07T15:34:45;3.43;;;3.13;;
11396;SDS011;5754;43.726;7.416;2023-05-07T15:37:19;4.10;;;3.73;;
11396;SDS011;5754;43.726;7.416;2023-05-07T15:39:54;4.23;;;3.93;;
11396;SDS011;5754;43.726;7.416;2023-05-07T15:42:28;3.87;;;3.47;;
11396;SDS011;5754;43.726;7.416;2023-05-07T15:45:03;4.47;;;4.07;;
11396;SDS011;5754;43.726;7.416;2023-05-07T15:47:38;4.50;;;3.43;;
11396;SDS011;5754;43.726;7.416;2023-05-07T15:50:13;5.00;;;3.70;;
11396;SDS011;5754;43.726;7.416;2023-05-07T15:52:47;4.00;;;3.70;;
11396;SDS011;5754;43.726;7.416;2023-05-07T15:55:22;4.23;;;3.63;;
11396;SDS011;5754;43.726;7.416;2023-05-07T15:57:56;3.93;;;3.63;;
11396;SDS011;5754;43.726;7.416;2023-05-07T16:00:31;4.40;;;3.50;;